Time;durP1;ratioP1;P1;durP2;ratioP2;P2;SDS_P1;SDS_P2;PMS_P1;PMS_P2;Temp;Humidity;BMP_temperature;BMP_pressure;BME280_temperature;BME280_humidity;BME280_pressure;Samples;Min_cycle;Max_cycle;Signal;HPM_P1;HPM_P2
2022/05/21 00:00:45;;;;;;;1.55;0.70;;;;;;;;;;4976968;28;20023;-77
2022/05/21 00:03:13;;;;;;;4.13;1.17;;;;;;;;;;4965377;28;20369;-76
2022/05/21 00:05:39;;;;;;;1.65;1.10;;;;;;;;;;4957445;28;20437;-76
2022/05/21 00:08:14;;;;;;;0.30;0.30;;;;;;;;;;4957148;28;20062;-77
2022/05/21 00:10:43;;;;;;;1.77;1.17;;;;;;;;;;4964956;28;20038;-76
2022/05/21 00:13:12;;;;;;;0.77;0.77;;;;;;;;;;4977045;28;20114;-76
2022/05/21 00:15:40;;;;;;;0.98;0.40;;;;;;;;;;4976721;28;20059;-77
2022/05/21 00:18:05;;;;;;;1.08;0.57;;;;;;;;;;4957252;28;20035;-76
2022/05/21 00:20:49;;;;;;;1.13;1.02;;;;;;;;;;4956211;29;20365;-77
2022/05/21 00:23:18;;;;;;;0.45;0.35;;;;;;;;;;4974614;28;20054;-77
2022/05/21 00:25:44;;;;;;;1.75;1.65;;;;;;;;;;4976570;28;20535;-77
2022/05/21 00:28:10;;;;;;;1.92;1.00;;;;;;;;;;4960100;28;20118;-77
2022/05/21 00:30:36;;;;;;;1.75;1.13;;;;;;;;;;4957290;28;20410;-77
2022/05/21 00:33:01;;;;;;;1.48;1.38;;;;;;;;;;4974491;28;20038;-77
2022/05/21 00:35:27;;;;;;;6.55;1.20;;;;;;;;;;4991013;28;20054;-75
2022/05/21 00:37:52;;;;;;;2.58;1.77;;;;;;;;;;5035186;23;20483;-77
2022/05/21 00:40:20;;;;;;;2.10;1.30;;;;;;;;;;5013427;28;20057;-77
2022/05/21 00:42:48;;;;;;;1.88;1.75;;;;;;;;;;5004198;28;20026;-77
2022/05/21 00:45:15;;;;;;;1.90;1.20;;;;;;;;;;5005725;28;20065;-77
2022/05/21 00:47:40;;;;;;;1.50;1.38;;;;;;;;;;5006862;28;20037;-76
2022/05/21 00:50:07;;;;;;;1.80;0.88;;;;;;;;;;5003898;28;20026;-75
2022/05/21 00:52:34;;;;;;;1.90;1.42;;;;;;;;;;5018378;28;20055;-75
2022/05/21 00:55:04;;;;;;;2.42;1.55;;;;;;;;;;5007266;28;20112;-77
2022/05/21 00:57:33;;;;;;;1.05;0.77;;;;;;;;;;4999375;28;20026;-77
2022/05/21 01:00:03;;;;;;;2.28;1.50;;;;;;;;;;4997582;28;20022;-76
2022/05/21 01:02:34;;;;;;;0.85;0.60;;;;;;;;;;4997683;28;20030;-75
2022/05/21 01:05:02;;;;;;;2.53;1.08;;;;;;;;;;5014817;28;20018;-76
2022/05/21 01:07:29;;;;;;;2.20;1.25;;;;;;;;;;5014459;28;20017;-77
2022/05/21 01:09:56;;;;;;;0.80;0.77;;;;;;;;;;5013786;28;20117;-77
2022/05/21 01:12:27;;;;;;;1.60;1.50;;;;;;;;;;5013899;28;20017;-77
2022/05/21 01:14:56;;;;;;;2.45;1.67;;;;;;;;;;4997819;28;20029;-78
2022/05/21 01:17:24;;;;;;;0.95;0.95;;;;;;;;;;4997371;28;20399;-77
2022/05/21 01:20:02;;;;;;;3.17;2.20;;;;;;;;;;5014441;28;20029;-78
2022/05/21 01:22:32;;;;;;;0.45;0.45;;;;;;;;;;4997637;28;20017;-77
2022/05/21 01:24:59;;;;;;;0.80;0.70;;;;;;;;;;5013672;28;20040;-77
2022/05/21 01:27:26;;;;;;;1.63;1.45;;;;;;;;;;5014092;28;20458;-77
2022/05/21 01:29:53;;;;;;;1.95;1.80;;;;;;;;;;4997220;28;20458;-77
2022/05/21 01:32:20;;;;;;;1.65;0.65;;;;;;;;;;5013628;28;20104;-77
2022/05/21 01:34:45;;;;;;;5.10;1.35;;;;;;;;;;5013664;28;20028;-76
2022/05/21 01:37:15;;;;;;;0.65;0.65;;;;;;;;;;5013957;28;20030;-77
2022/05/21 01:39:48;;;;;;;1.45;1.27;;;;;;;;;;5014469;28;20021;-77
2022/05/21 01:42:13;;;;;;;1.45;0.73;;;;;;;;;;5014525;28;20022;-77
2022/05/21 01:44:38;;;;;;;1.05;0.85;;;;;;;;;;5013309;28;20482;-77
2022/05/21 01:47:12;;;;;;;2.17;1.60;;;;;;;;;;5014354;28;20026;-77
2022/05/21 01:49:38;;;;;;;0.52;0.52;;;;;;;;;;5013419;28;20034;-77
2022/05/21 01:52:07;;;;;;;1.58;1.17;;;;;;;;;;5014412;28;20045;-77
2022/05/21 01:54:33;;;;;;;0.75;0.75;;;;;;;;;;5013916;28;20029;-76
2022/05/21 01:56:59;;;;;;;1.15;1.08;;;;;;;;;;5013305;28;20026;-77
2022/05/21 01:59:25;;;;;;;0.90;0.68;;;;;;;;;;5013271;28;20014;-77
2022/05/21 02:01:53;;;;;;;0.88;0.85;;;;;;;;;;5014225;28;20036;-77
2022/05/21 02:04:21;;;;;;;0.88;0.88;;;;;;;;;;5013395;28;20021;-78
2022/05/21 02:06:47;;;;;;;1.27;1.13;;;;;;;;;;5015214;28;20033;-76
2022/05/21 02:09:15;;;;;;;0.77;0.77;;;;;;;;;;5018179;28;20037;-77
2022/05/21 02:11:43;;;;;;;0.82;0.65;;;;;;;;;;5017184;28;20022;-77
2022/05/21 02:14:11;;;;;;;0.65;0.65;;;;;;;;;;5017460;28;20030;-76
2022/05/21 02:16:39;;;;;;;1.23;1.13;;;;;;;;;;5016930;28;20033;-76
2022/05/21 02:19:09;;;;;;;1.75;0.77;;;;;;;;;;5018294;28;20325;-77
2022/05/21 02:21:38;;;;;;;2.10;0.82;;;;;;;;;;5015663;28;20026;-76
2022/05/21 02:24:04;;;;;;;0.43;0.43;;;;;;;;;;5008691;28;20076;-74
2022/05/21 02:26:33;;;;;;;1.95;1.23;;;;;;;;;;4998434;28;20125;-77
2022/05/21 02:28:58;;;;;;;0.32;0.22;;;;;;;;;;4998124;28;20022;-76
2022/05/21 02:31:24;;;;;;;0.50;0.50;;;;;;;;;;4998458;28;20436;-76
2022/05/21 02:33:49;;;;;;;0.10;0.10;;;;;;;;;;4998407;28;20444;-76
2022/05/21 02:36:17;;;;;;;1.65;0.98;;;;;;;;;;5009143;28;20027;-77
2022/05/21 02:41:26;;;;;;;0.32;0.32;;;;;;;;;;5008242;28;20037;-78
2022/05/21 02:43:52;;;;;;;0.35;0.35;;;;;;;;;;5009894;28;20018;-75
2022/05/21 02:46:17;;;;;;;0.88;0.85;;;;;;;;;;5001638;28;20026;-77
2022/05/21 02:48:42;;;;;;;1.10;1.02;;;;;;;;;;5008850;28;20029;-77
2022/05/21 02:51:09;;;;;;;3.65;1.25;;;;;;;;;;5013121;28;20105;-76
2022/05/21 02:53:39;;;;;;;2.63;1.58;;;;;;;;;;5016901;28;20041;-75
2022/05/21 02:56:09;;;;;;;0.32;0.28;;;;;;;;;;5016391;28;20179;-75
2022/05/21 02:58:37;;;;;;;0.25;0.25;;;;;;;;;;5014938;28;20026;-76
2022/05/21 03:01:02;;;;;;;0.93;0.90;;;;;;;;;;5016510;28;20084;-77
2022/05/21 03:03:28;;;;;;;0.38;0.32;;;;;;;;;;5015850;28;20514;-76
2022/05/21 03:05:57;;;;;;;0.22;0.22;;;;;;;;;;5015392;28;20034;-77
2022/05/21 03:11:06;;;;;;;0.32;0.32;;;;;;;;;;5015971;28;20036;-76
2022/05/21 03:13:34;;;;;;;1.63;1.20;;;;;;;;;;5013987;28;20351;-77
2022/05/21 03:16:00;;;;;;;2.22;1.30;;;;;;;;;;5012257;28;20026;-76
2022/05/21 03:18:25;;;;;;;0.95;0.95;;;;;;;;;;4995623;28;20036;-77
2022/05/21 03:20:54;;;;;;;0.77;0.77;;;;;;;;;;5008982;28;20041;-77
2022/05/21 03:23:21;;;;;;;1.35;0.90;;;;;;;;;;5009524;28;20036;-77
2022/05/21 03:25:49;;;;;;;0.65;0.60;;;;;;;;;;5013633;28;20027;-76
2022/05/21 03:28:18;;;;;;;1.77;1.15;;;;;;;;;;5012379;28;20359;-77
2022/05/21 03:30:43;;;;;;;0.75;0.45;;;;;;;;;;5005629;28;20030;-76
2022/05/21 03:33:09;;;;;;;0.95;0.95;;;;;;;;;;5011673;28;20036;-76
2022/05/21 03:35:34;;;;;;;0.93;0.68;;;;;;;;;;5014104;28;20029;-76
2022/05/21 03:38:00;;;;;;;1.73;0.85;;;;;;;;;;4995929;28;20482;-77
2022/05/21 03:40:29;;;;;;;2.22;1.92;;;;;;;;;;5007005;28;20025;-77
2022/05/21 03:42:54;;;;;;;0.88;0.88;;;;;;;;;;5015061;28;20037;-77
2022/05/21 03:45:23;;;;;;;0.88;0.75;;;;;;;;;;5016227;28;20087;-77
2022/05/21 03:47:51;;;;;;;0.98;0.98;;;;;;;;;;5014471;28;20033;-77
2022/05/21 03:50:20;;;;;;;1.80;1.20;;;;;;;;;;5015462;28;20026;-77
2022/05/21 03:52:45;;;;;;;0.60;0.60;;;;;;;;;;5014925;28;20034;-77
2022/05/21 03:55:11;;;;;;;1.00;1.00;;;;;;;;;;5016064;28;20029;-77
2022/05/21 03:57:38;;;;;;;0.95;0.68;;;;;;;;;;5016140;28;20048;-77
2022/05/21 04:00:06;;;;;;;1.23;1.10;;;;;;;;;;5016132;28;20123;-76
2022/05/21 04:02:32;;;;;;;0.40;0.40;;;;;;;;;;5014847;28;20033;-76
2022/05/21 04:04:58;;;;;;;1.17;0.95;;;;;;;;;;5015148;28;20021;-77
2022/05/21 04:07:24;;;;;;;1.17;1.08;;;;;;;;;;5015350;28;20348;-77
2022/05/21 04:09:49;;;;;;;1.58;0.73;;;;;;;;;;5014325;28;20030;-77
2022/05/21 04:12:15;;;;;;;1.08;0.55;;;;;;;;;;5015291;28;20119;-76
2022/05/21 04:14:40;;;;;;;1.25;1.17;;;;;;;;;;5014045;28;20101;-75
2022/05/21 04:17:13;;;;;;;1.27;1.17;;;;;;;;;;5013245;28;20363;-77
2022/05/21 04:19:41;;;;;;;0.77;0.77;;;;;;;;;;5008453;28;20112;-77
2022/05/21 04:22:07;;;;;;;2.20;1.23;;;;;;;;;;4997744;28;20072;-76
2022/05/21 04:24:32;;;;;;;0.90;0.80;;;;;;;;;;5014699;28;20487;-76
2022/05/21 04:26:58;;;;;;;1.92;1.58;;;;;;;;;;5014115;28;20101;-75
2022/05/21 04:29:25;;;;;;;0.40;0.40;;;;;;;;;;5014407;28;20109;-76
2022/05/21 04:31:51;;;;;;;1.05;1.00;;;;;;;;;;5015352;28;20329;-76
2022/05/21 04:34:16;;;;;;;1.10;1.02;;;;;;;;;;5013721;28;20065;-75
2022/05/21 04:36:44;;;;;;;1.60;1.33;;;;;;;;;;5012331;28;20440;-77
2022/05/21 04:39:09;;;;;;;4.40;1.65;;;;;;;;;;5013715;28;20018;-76
2022/05/21 04:41:35;;;;;;;3.55;1.25;;;;;;;;;;5015296;28;20363;-75
2022/05/21 04:44:02;;;;;;;1.27;1.17;;;;;;;;;;5013065;28;20117;-76
2022/05/21 04:46:28;;;;;;;1.73;1.17;;;;;;;;;;5014274;28;20029;-77
2022/05/21 04:48:53;;;;;;;1.10;1.00;;;;;;;;;;5012851;28;20096;-76
2022/05/21 04:51:19;;;;;;;2.90;1.90;;;;;;;;;;5014024;28;20092;-76
2022/05/21 04:53:45;;;;;;;2.15;1.00;;;;;;;;;;5013152;28;20068;-75
2022/05/21 04:56:13;;;;;;;2.47;2.08;;;;;;;;;;5014243;28;20464;-76
2022/05/21 04:58:38;;;;;;;2.63;1.90;;;;;;;;;;5014274;28;20087;-76
2022/05/21 05:01:04;;;;;;;1.73;1.63;;;;;;;;;;5013190;28;20113;-76
2022/05/21 05:03:30;;;;;;;0.93;0.82;;;;;;;;;;5012546;28;20121;-77
2022/05/21 05:05:55;;;;;;;1.30;0.70;;;;;;;;;;5013251;28;20094;-76
2022/05/21 05:08:24;;;;;;;0.50;0.50;;;;;;;;;;5013289;28;20025;-77
2022/05/21 05:10:50;;;;;;;1.10;1.00;;;;;;;;;;5013646;28;20419;-74
2022/05/21 05:13:18;;;;;;;2.35;1.25;;;;;;;;;;5029153;28;20112;-76
2022/05/21 05:15:44;;;;;;;0.55;0.30;;;;;;;;;;5012213;28;20514;-76
2022/05/21 05:18:14;;;;;;;1.67;1.15;;;;;;;;;;5014100;28;20036;-76
2022/05/21 05:20:41;;;;;;;0.60;0.43;;;;;;;;;;5012664;28;20032;-77
2022/05/21 05:23:08;;;;;;;1.48;0.98;;;;;;;;;;5014199;28;20056;-77
2022/05/21 05:25:37;;;;;;;1.88;1.63;;;;;;;;;;5012361;28;20032;-76
2022/05/21 05:28:02;;;;;;;12.05;1.13;;;;;;;;;;5011013;28;20037;-76
2022/05/21 05:30:28;;;;;;;0.20;0.17;;;;;;;;;;5013455;28;20030;-77
2022/05/21 05:32:53;;;;;;;0.50;0.50;;;;;;;;;;5012879;28;20022;-78
2022/05/21 05:35:22;;;;;;;1.23;1.10;;;;;;;;;;5013896;28;20530;-77
2022/05/21 05:37:48;;;;;;;2.20;1.33;;;;;;;;;;5012965;28;20394;-76
2022/05/21 05:40:20;;;;;;;0.93;0.60;;;;;;;;;;5012951;28;20104;-75
2022/05/21 05:42:48;;;;;;;1.92;1.38;;;;;;;;;;5012851;28;20029;-76
2022/05/21 05:45:14;;;;;;;0.60;0.60;;;;;;;;;;5010615;28;20453;-78
2022/05/21 05:47:39;;;;;;;0.70;0.70;;;;;;;;;;5008115;28;20189;-77
2022/05/21 05:50:05;;;;;;;1.75;1.35;;;;;;;;;;4992761;28;20132;-76
2022/05/21 05:52:31;;;;;;;2.92;1.83;;;;;;;;;;5007649;28;20034;-76
2022/05/21 05:54:56;;;;;;;2.13;1.50;;;;;;;;;;5012366;28;20021;-76
2022/05/21 05:57:23;;;;;;;2.58;1.42;;;;;;;;;;5006217;28;20030;-76
2022/05/21 05:59:49;;;;;;;0.73;0.50;;;;;;;;;;5011735;28;20105;-74
2022/05/21 06:05:06;;;;;;;2.35;1.83;;;;;;;;;;5020635;28;20068;-77
2022/05/21 06:07:32;;;;;;;1.23;1.15;;;;;;;;;;5014912;28;20404;-76
2022/05/21 06:10:04;;;;;;;1.05;0.90;;;;;;;;;;5010575;28;20053;-77
2022/05/21 06:12:31;;;;;;;1.35;0.82;;;;;;;;;;5004596;28;20046;-76
2022/05/21 06:14:57;;;;;;;0.57;0.57;;;;;;;;;;5007498;28;20452;-76
2022/05/21 06:17:22;;;;;;;7.30;4.25;;;;;;;;;;5007590;28;20026;-76
2022/05/21 06:19:48;;;;;;;1.42;1.33;;;;;;;;;;5002211;28;20029;-77
2022/05/21 06:22:13;;;;;;;0.77;0.50;;;;;;;;;;5013239;28;20045;-76
2022/05/21 06:24:38;;;;;;;2.53;1.70;;;;;;;;;;5012840;28;20022;-76
2022/05/21 06:27:05;;;;;;;0.57;0.45;;;;;;;;;;5012727;28;20045;-74
2022/05/21 06:29:30;;;;;;;1.45;1.35;;;;;;;;;;5013407;28;20040;-75
2022/05/21 06:31:58;;;;;;;1.33;1.20;;;;;;;;;;5011786;28;20022;-77
2022/05/21 06:34:24;;;;;;;6.97;1.65;;;;;;;;;;5012092;28;20033;-76
2022/05/21 06:36:50;;;;;;;34.17;3.47;;;;;;;;;;5011994;28;20034;-77
2022/05/21 06:39:15;;;;;;;1.48;1.33;;;;;;;;;;5012963;28;20026;-76
2022/05/21 06:41:41;;;;;;;0.82;0.80;;;;;;;;;;5012279;28;20073;-76
2022/05/21 06:44:07;;;;;;;0.73;0.68;;;;;;;;;;5012006;28;20026;-76
2022/05/21 06:46:36;;;;;;;2.00;1.27;;;;;;;;;;5013696;28;20040;-75
2022/05/21 06:49:01;;;;;;;3.13;0.85;;;;;;;;;;5012135;28;20157;-76
2022/05/21 06:51:29;;;;;;;1.25;1.15;;;;;;;;;;5013632;28;20113;-77
2022/05/21 06:53:57;;;;;;;1.50;1.00;;;;;;;;;;5012118;28;20042;-76
2022/05/21 06:56:22;;;;;;;5.18;1.42;;;;;;;;;;5015864;28;20052;-78
2022/05/21 06:58:50;;;;;;;0.73;0.73;;;;;;;;;;5016153;28;20058;-78
2022/05/21 07:01:15;;;;;;;0.77;0.73;;;;;;;;;;5016699;28;20026;-78
2022/05/21 07:03:41;;;;;;;17.15;3.08;;;;;;;;;;5016352;28;20108;-78
2022/05/21 07:08:50;;;;;;;1.45;1.27;;;;;;;;;;5007498;28;20057;-78
2022/05/21 07:11:18;;;;;;;35.13;1.13;;;;;;;;;;5007306;28;20030;-77
2022/05/21 07:13:44;;;;;;;1.23;0.90;;;;;;;;;;5007532;28;20041;-77
2022/05/21 07:16:09;;;;;;;22.75;5.45;;;;;;;;;;5008650;28;20053;-75
2022/05/21 07:18:35;;;;;;;21.73;1.88;;;;;;;;;;5012617;28;20070;-75
2022/05/21 07:21:00;;;;;;;1.63;1.17;;;;;;;;;;5006883;28;20040;-77
2022/05/21 07:23:26;;;;;;;1.08;0.65;;;;;;;;;;5008286;28;20036;-79
2022/05/21 07:25:52;;;;;;;4.03;2.70;;;;;;;;;;5014866;28;20030;-76
2022/05/21 07:28:20;;;;;;;2.30;1.48;;;;;;;;;;5013793;28;20107;-76
2022/05/21 07:30:46;;;;;;;1.33;1.08;;;;;;;;;;5001797;28;20363;-78
2022/05/21 07:33:17;;;;;;;0.80;0.80;;;;;;;;;;5014466;28;20096;-80
2022/05/21 07:35:43;;;;;;;0.90;0.63;;;;;;;;;;5016292;28;20033;-78
2022/05/21 07:38:16;;;;;;;4.90;2.65;;;;;;;;;;5015582;28;20029;-77
2022/05/21 07:40:42;;;;;;;1.48;1.38;;;;;;;;;;5015544;28;20034;-77
2022/05/21 07:43:18;;;;;;;1.02;0.98;;;;;;;;;;5015168;28;20041;-78
2022/05/21 07:49:03;;;;;;;1.33;1.23;;;;;;;;;;4994211;28;20038;-77
2022/05/21 07:51:30;;;;;;;2.13;1.48;;;;;;;;;;4993698;28;20456;-75
2022/05/21 07:54:03;;;;;;;1.98;1.80;;;;;;;;;;4993408;28;20050;-76
2022/05/21 07:56:37;;;;;;;;;;;;;;;;;;4995222;28;20030;-77
2022/05/21 07:59:02;;;;;;;0.80;0.73;;;;;;;;;;4994260;28;19968;-77
2022/05/21 08:01:28;;;;;;;0.88;0.50;;;;;;;;;;4993855;28;20054;-76
2022/05/21 08:03:55;;;;;;;0.80;0.73;;;;;;;;;;4993032;28;20042;-77
2022/05/21 08:06:21;;;;;;;3.00;0.88;;;;;;;;;;4990065;28;20042;-75
2022/05/21 08:09:07;;;;;;;0.80;0.73;;;;;;;;;;4976433;28;20022;-75
2022/05/21 08:12:12;;;;;;;0.98;0.98;;;;;;;;;;4973151;28;20033;-76
2022/05/21 08:14:37;;;;;;;0.75;0.73;;;;;;;;;;4971155;28;20038;-75
2022/05/21 08:17:06;;;;;;;1.52;1.38;;;;;;;;;;4992971;28;20211;-77
2022/05/21 08:19:52;;;;;;;0.85;0.75;;;;;;;;;;4994101;28;20114;-77
2022/05/21 08:27:45;;;;;;;5.05;2.20;;;;;;;;;;5014736;28;20045;-74
2022/05/21 08:30:10;;;;;;;1.30;0.88;;;;;;;;;;5014906;28;20363;-75
2022/05/21 08:32:36;;;;;;;1.00;0.95;;;;;;;;;;5014950;28;20339;-75
2022/05/21 08:35:02;;;;;;;2.05;1.10;;;;;;;;;;5014496;28;20391;-76
2022/05/21 08:37:29;;;;;;;4.43;2.47;;;;;;;;;;5015235;28;20029;-74
2022/05/21 08:39:55;;;;;;;1.67;1.58;;;;;;;;;;4996595;28;20025;-75
2022/05/21 08:42:58;;;;;;;2.90;2.38;;;;;;;;;;5015151;28;20034;-74
2022/05/21 08:45:54;;;;;;;4.43;1.20;;;;;;;;;;5015235;28;20025;-74
2022/05/21 08:48:22;;;;;;;5.35;2.10;;;;;;;;;;5009445;28;20049;-74
2022/05/21 08:50:49;;;;;;;1.63;1.52;;;;;;;;;;5014591;28;20547;-76
2022/05/21 08:53:19;;;;;;;16.17;2.20;;;;;;;;;;5014623;28;20116;-75
2022/05/21 08:55:50;;;;;;;3.70;2.28;;;;;;;;;;5014119;28;20108;-75
2022/05/21 08:58:35;;;;;;;1.52;1.42;;;;;;;;;;5013636;28;20017;-76
2022/05/21 09:01:00;;;;;;;3.30;1.30;;;;;;;;;;5014816;28;20026;-76
2022/05/21 09:03:27;;;;;;;0.98;0.93;;;;;;;;;;5014411;28;20115;-75
2022/05/21 09:06:17;;;;;;;2.33;2.13;;;;;;;;;;5014159;28;20033;-76
2022/05/21 09:09:03;;;;;;;0.73;0.73;;;;;;;;;;5010366;28;20042;-76
2022/05/21 09:11:34;;;;;;;1.00;0.93;;;;;;;;;;4995429;28;20033;-75
2022/05/21 09:13:59;;;;;;;1.55;1.45;;;;;;;;;;5005041;28;20033;-76
2022/05/21 09:19:17;;;;;;;1.33;1.17;;;;;;;;;;5014744;28;20514;-76
2022/05/21 09:21:46;;;;;;;1.42;0.80;;;;;;;;;;5013600;28;20032;-75
2022/05/21 09:24:41;;;;;;;1.38;1.27;;;;;;;;;;5012967;28;20030;-74
2022/05/21 09:27:35;;;;;;;4.93;1.92;;;;;;;;;;5012811;28;20022;-76
2022/05/21 09:30:12;;;;;;;2.42;2.13;;;;;;;;;;5014681;28;20092;-74
2022/05/21 09:32:39;;;;;;;5.10;2.65;;;;;;;;;;5014624;28;20032;-75
2022/05/21 09:35:08;;;;;;;3.30;2.88;;;;;;;;;;5014521;28;20026;-76
2022/05/21 09:37:33;;;;;;;1.38;1.20;;;;;;;;;;5010985;28;20034;-75
2022/05/21 09:40:00;;;;;;;0.50;0.50;;;;;;;;;;5013717;28;20022;-74
2022/05/21 09:45:32;;;;;;;1.55;1.45;;;;;;;;;;5014501;28;20025;-74
2022/05/21 09:48:03;;;;;;;1.20;1.10;;;;;;;;;;5011851;28;20037;-76
2022/05/21 09:50:30;;;;;;;8.63;1.65;;;;;;;;;;5012983;28;20030;-77
2022/05/21 09:52:55;;;;;;;2.40;1.33;;;;;;;;;;5013622;28;20101;-77
2022/05/21 09:55:27;;;;;;;1.75;1.23;;;;;;;;;;5014327;28;20029;-77
2022/05/21 09:57:52;;;;;;;1.60;1.03;;;;;;;;;;5013732;28;20048;-76
2022/05/21 10:00:34;;;;;;;8.98;1.65;;;;;;;;;;5013337;28;20455;-77
2022/05/21 10:03:03;;;;;;;0.70;0.70;;;;;;;;;;5013070;28;20140;-76
2022/05/21 10:05:35;;;;;;;1.60;0.73;;;;;;;;;;5014411;28;20346;-78
2022/05/21 10:11:28;;;;;;;4.27;1.70;;;;;;;;;;4973182;28;20041;-76
2022/05/21 10:14:04;;;;;;;1.37;0.97;;;;;;;;;;4973275;28;20141;-76
2022/05/21 10:16:50;;;;;;;3.70;1.25;;;;;;;;;;4973106;28;20113;-76
2022/05/21 10:19:18;;;;;;;1.75;1.30;;;;;;;;;;4991374;28;20038;-75
2022/05/21 10:21:53;;;;;;;2.38;1.90;;;;;;;;;;4975459;28;20118;-76
2022/05/21 10:24:34;;;;;;;10.82;1.65;;;;;;;;;;4975102;28;20029;-76
2022/05/21 10:27:17;;;;;;;8.45;3.20;;;;;;;;;;4973448;28;20062;-77
2022/05/21 10:29:56;;;;;;;0.50;0.40;;;;;;;;;;4987917;28;20034;-76
2022/05/21 10:32:32;;;;;;;2.45;0.90;;;;;;;;;;4994742;28;20034;-76
2022/05/21 10:35:22;;;;;;;1.13;1.02;;;;;;;;;;4994699;28;20061;-76
2022/05/21 10:38:02;;;;;;;4.65;1.35;;;;;;;;;;4991144;28;20038;-76
2022/05/21 10:40:36;;;;;;;4.15;1.55;;;;;;;;;;4995796;28;20030;-77
2022/05/21 10:43:04;;;;;;;0.70;0.70;;;;;;;;;;5008274;28;20044;-77
2022/05/21 10:45:37;;;;;;;4.20;1.98;;;;;;;;;;5011971;28;20030;-76
2022/05/21 10:48:31;;;;;;;2.15;1.92;;;;;;;;;;5015547;28;20088;-77
2022/05/21 10:51:08;;;;;;;1.20;0.90;;;;;;;;;;5006066;28;20032;-76
2022/05/21 10:53:47;;;;;;;3.40;1.38;;;;;;;;;;5013056;28;20141;-77
2022/05/21 10:56:31;;;;;;;4.10;1.83;;;;;;;;;;5009390;28;20061;-77
2022/05/21 10:59:30;;;;;;;6.93;1.25;;;;;;;;;;5012080;28;20406;-76
2022/05/21 11:02:24;;;;;;;1.15;1.02;;;;;;;;;;5016393;28;20205;-77
2022/05/21 11:05:05;;;;;;;3.28;1.38;;;;;;;;;;5006631;28;20427;-76
2022/05/21 11:07:44;;;;;;;0.80;0.80;;;;;;;;;;5016676;28;20040;-76
2022/05/21 11:10:18;;;;;;;1.88;1.73;;;;;;;;;;5007696;28;20030;-77
2022/05/21 11:13:00;;;;;;;1.10;0.95;;;;;;;;;;5016685;28;20037;-77
2022/05/21 11:15:58;;;;;;;0.55;0.43;;;;;;;;;;5015397;28;20033;-77
2022/05/21 11:18:47;;;;;;;1.40;1.30;;;;;;;;;;5004184;28;20040;-76
2022/05/21 11:21:19;;;;;;;0.65;0.47;;;;;;;;;;5014800;28;20033;-76
2022/05/21 11:27:02;;;;;;;0.85;0.63;;;;;;;;;;5006484;28;20029;-77
2022/05/21 11:29:54;;;;;;;1.98;1.30;;;;;;;;;;4997246;28;20022;-75
2022/05/21 11:38:28;;;;;;;2.05;1.63;;;;;;;;;;5011524;28;20087;-75
2022/05/21 11:46:53;;;;;;;1.25;0.85;;;;;;;;;;4997245;28;20044;-77
2022/05/21 11:49:46;;;;;;;0.57;0.57;;;;;;;;;;4998022;28;20026;-76
2022/05/21 11:52:27;;;;;;;;;;;;;;;;;;5001987;28;20030;-77
2022/05/21 11:54:58;;;;;;;1.60;1.00;;;;;;;;;;5011188;28;19913;-78
2022/05/21 11:58:12;;;;;;;0.60;0.60;;;;;;;;;;5006503;28;20029;-77
2022/05/21 12:00:46;;;;;;;5.85;1.77;;;;;;;;;;5006220;28;20037;-78
2022/05/21 12:03:20;;;;;;;1.00;0.93;;;;;;;;;;5014509;28;20112;-77
2022/05/21 12:05:46;;;;;;;0.52;0.50;;;;;;;;;;5015618;28;20025;-76
2022/05/21 12:09:05;;;;;;;0.55;0.55;;;;;;;;;;5010858;28;20025;-76
2022/05/21 12:11:51;;;;;;;1.25;1.15;;;;;;;;;;5011343;28;20049;-78
2022/05/21 12:14:24;;;;;;;2.30;1.85;;;;;;;;;;5010832;28;20040;-76
2022/05/21 12:16:56;;;;;;;0.45;0.45;;;;;;;;;;5007000;28;20036;-75
2022/05/21 12:19:40;;;;;;;;;;;;;;;;;;5012298;28;20025;-75
2022/05/21 12:22:06;;;;;;;0.90;0.80;;;;;;;;;;5006681;28;19913;-76
2022/05/21 12:24:33;;;;;;;1.17;1.05;;;;;;;;;;5010969;28;20033;-76
2022/05/21 12:27:21;;;;;;;8.88;0.98;;;;;;;;;;5006380;28;20037;-77
2022/05/21 12:29:52;;;;;;;0.70;0.68;;;;;;;;;;5024699;28;20117;-76
2022/05/21 12:32:24;;;;;;;0.73;0.73;;;;;;;;;;4992328;28;21436;-74
2022/05/21 12:35:26;;;;;;;0.60;0.60;;;;;;;;;;5006450;28;20083;-77
2022/05/21 12:38:11;;;;;;;1.35;0.60;;;;;;;;;;5007615;28;20096;-77
2022/05/21 12:41:17;;;;;;;0.85;0.43;;;;;;;;;;5003395;28;20124;-77
2022/05/21 12:43:46;;;;;;;1.75;1.13;;;;;;;;;;5007491;28;20032;-78
2022/05/21 12:46:35;;;;;;;0.85;0.50;;;;;;;;;;5001124;28;20097;-75
2022/05/21 12:49:04;;;;;;;0.77;0.73;;;;;;;;;;5029458;28;20034;-77
2022/05/21 12:51:32;;;;;;;0.85;0.60;;;;;;;;;;5006802;28;20359;-77
2022/05/21 12:54:00;;;;;;;2.42;1.33;;;;;;;;;;5009131;28;20330;-76
2022/05/21 12:56:30;;;;;;;1.88;1.15;;;;;;;;;;5005764;28;20021;-76
2022/05/21 12:59:10;;;;;;;3.47;1.48;;;;;;;;;;5010650;28;20017;-76
2022/05/21 13:01:43;;;;;;;1.95;1.35;;;;;;;;;;5002588;28;20473;-75
2022/05/21 13:04:41;;;;;;;1.33;0.75;;;;;;;;;;5008253;28;20049;-76
2022/05/21 13:07:22;;;;;;;2.67;1.33;;;;;;;;;;5000597;28;20022;-75
2022/05/21 13:09:53;;;;;;;1.50;1.40;;;;;;;;;;5012087;28;20116;-77
2022/05/21 13:12:23;;;;;;;1.52;1.15;;;;;;;;;;5006373;28;20062;-77
2022/05/21 13:14:49;;;;;;;1.33;1.02;;;;;;;;;;4996298;28;20033;-77
2022/05/21 13:17:29;;;;;;;0.40;0.40;;;;;;;;;;4998321;28;20036;-78
2022/05/21 13:19:55;;;;;;;1.27;1.00;;;;;;;;;;4997441;28;20030;-75
2022/05/21 13:22:33;;;;;;;1.85;1.67;;;;;;;;;;5012385;28;20080;-77
2022/05/21 13:25:00;;;;;;;1.08;0.63;;;;;;;;;;5001871;28;20101;-76
2022/05/21 13:27:43;;;;;;;3.25;1.45;;;;;;;;;;5002468;28;20334;-77
2022/05/21 13:30:19;;;;;;;21.17;1.52;;;;;;;;;;4992182;28;20033;-76
2022/05/21 13:32:53;;;;;;;3.17;1.65;;;;;;;;;;5009989;28;20535;-78
2022/05/21 13:39:23;;;;;;;2.00;1.13;;;;;;;;;;4995773;28;20040;-77
2022/05/21 13:42:07;;;;;;;0.35;0.35;;;;;;;;;;5008135;28;20041;-76
2022/05/21 13:44:35;;;;;;;0.40;0.30;;;;;;;;;;5028257;28;20487;-75
2022/05/21 13:47:05;;;;;;;0.50;0.50;;;;;;;;;;5010648;28;20072;-79
2022/05/21 13:49:41;;;;;;;0.35;0.35;;;;;;;;;;5010868;28;20112;-77
2022/05/21 13:52:09;;;;;;;1.95;1.60;;;;;;;;;;5010237;28;20033;-78
2022/05/21 13:54:37;;;;;;;0.70;0.70;;;;;;;;;;5012166;28;20474;-78
2022/05/21 13:57:13;;;;;;;1.08;0.98;;;;;;;;;;5017677;28;20124;-78
2022/05/21 13:59:56;;;;;;;1.50;0.90;;;;;;;;;;5012231;28;20022;-80
2022/05/21 14:02:24;;;;;;;1.65;1.10;;;;;;;;;;5014675;28;20029;-77
2022/05/21 14:04:50;;;;;;;0.75;0.75;;;;;;;;;;5017921;28;20037;-78
2022/05/21 14:07:52;;;;;;;2.00;1.80;;;;;;;;;;5017181;28;20030;-77
2022/05/21 14:10:31;;;;;;;1.60;1.20;;;;;;;;;;5015672;28;20113;-79
2022/05/21 14:13:05;;;;;;;1.02;0.60;;;;;;;;;;5025710;28;20037;-78
2022/05/21 14:15:37;;;;;;;1.70;1.60;;;;;;;;;;5037116;28;20047;-78
2022/05/21 14:18:05;;;;;;;0.98;0.88;;;;;;;;;;5035099;28;20029;-78
2022/05/21 14:21:06;;;;;;;1.50;1.02;;;;;;;;;;5017754;28;20064;-77
2022/05/21 14:23:39;;;;;;;0.82;0.70;;;;;;;;;;5000826;28;20029;-79
2022/05/21 14:26:16;;;;;;;0.73;0.57;;;;;;;;;;5017073;28;20056;-79
2022/05/21 14:28:42;;;;;;;2.55;1.50;;;;;;;;;;5001519;28;20096;-78
2022/05/21 14:31:40;;;;;;;1.77;1.63;;;;;;;;;;5037312;28;20443;-79
2022/05/21 14:34:17;;;;;;;1.50;0.57;;;;;;;;;;5026481;28;20057;-78
2022/05/21 14:36:45;;;;;;;5.68;1.23;;;;;;;;;;5030485;28;20075;-77
2022/05/21 14:39:16;;;;;;;1.85;0.85;;;;;;;;;;5036360;28;20025;-79
2022/05/21 14:42:25;;;;;;;1.33;1.20;;;;;;;;;;5036198;28;20083;-79
2022/05/21 14:44:50;;;;;;;1.08;0.80;;;;;;;;;;5037322;28;20021;-78
2022/05/21 14:53:15;;;;;;;0.30;0.30;;;;;;;;;;5013335;28;20064;-79
2022/05/21 14:55:45;;;;;;;0.80;0.80;;;;;;;;;;5000052;28;20121;-79
2022/05/21 14:58:11;;;;;;;1.85;1.00;;;;;;;;;;5015909;28;20033;-78
2022/05/21 15:00:38;;;;;;;4.00;1.67;;;;;;;;;;5016585;28;20022;-79
2022/05/21 15:03:04;;;;;;;0.43;0.43;;;;;;;;;;5008022;28;20017;-79
2022/05/21 15:05:34;;;;;;;0.90;0.45;;;;;;;;;;5003028;28;20038;-79
2022/05/21 15:07:59;;;;;;;0.50;0.50;;;;;;;;;;4997044;28;20027;-79
2022/05/21 15:10:25;;;;;;;1.08;1.00;;;;;;;;;;4997728;28;20428;-78
2022/05/21 15:12:50;;;;;;;1.27;1.17;;;;;;;;;;5010244;28;20041;-76
2022/05/21 15:15:18;;;;;;;1.60;0.70;;;;;;;;;;4999298;28;20030;-79
2022/05/21 15:17:47;;;;;;;0.93;0.73;;;;;;;;;;4982193;28;20018;-77
2022/05/21 15:20:17;;;;;;;0.80;0.80;;;;;;;;;;4987416;28;20032;-77
2022/05/21 15:22:58;;;;;;;1.55;0.75;;;;;;;;;;5006230;28;20432;-76
2022/05/21 15:25:23;;;;;;;3.28;1.73;;;;;;;;;;5002964;28;20036;-77
2022/05/21 15:27:50;;;;;;;1.95;1.20;;;;;;;;;;5012192;28;20033;-77
2022/05/21 15:30:36;;;;;;;1.75;1.20;;;;;;;;;;4986644;28;20455;-77
2022/05/21 15:35:56;;;;;;;1.38;1.00;;;;;;;;;;4999888;28;20061;-78
2022/05/21 15:39:16;;;;;;;0.85;0.70;;;;;;;;;;4993292;28;20018;-78
2022/05/21 15:41:42;;;;;;;1.20;0.68;;;;;;;;;;5013499;28;20021;-77
2022/05/21 15:44:16;;;;;;;0.65;0.65;;;;;;;;;;5004307;28;20125;-78
2022/05/21 15:46:42;;;;;;;1.17;1.05;;;;;;;;;;5000867;28;20049;-78
2022/05/21 15:49:16;;;;;;;0.57;0.57;;;;;;;;;;5000642;28;20026;-78
2022/05/21 15:51:57;;;;;;;1.13;0.55;;;;;;;;;;4987986;28;20044;-78
2022/05/21 15:57:27;;;;;;;4.28;1.02;;;;;;;;;;5005587;28;20034;-78
2022/05/21 16:00:48;;;;;;;0.40;0.40;;;;;;;;;;5007430;28;20049;-78
2022/05/21 16:03:13;;;;;;;0.60;0.45;;;;;;;;;;5008155;28;20021;-77
2022/05/21 16:05:39;;;;;;;1.02;1.02;;;;;;;;;;4997705;28;20069;-81
2022/05/21 16:08:04;;;;;;;1.27;1.17;;;;;;;;;;5003495;28;20105;-78